createdAt,value
2019-02-27T00:02:02.555Z,98960.02
2019-02-27T00:04:35.553Z,98965.20
2019-02-27T00:07:07.597Z,98971.50
2019-02-27T00:09:39.481Z,98971.50
2019-02-27T00:12:11.100Z,98967.91
2019-02-27T00:14:42.969Z,98971.05
2019-02-27T00:17:15.142Z,98980.92
2019-02-27T00:19:47.956Z,98983.98
2019-02-27T00:22:20.246Z,98983.98
2019-02-27T00:24:52.438Z,98992.51
2019-02-27T00:27:23.826Z,99000.34
2019-02-27T00:29:55.626Z,99007.63
2019-02-27T00:32:27.382Z,99012.58
2019-02-27T00:34:58.859Z,99021.10
2019-02-27T00:37:30.427Z,99023.09
2019-02-27T00:40:05.387Z,99023.09
2019-02-27T00:42:35.272Z,99031.72
2019-02-27T00:45:07.695Z,99041.75
2019-02-27T00:47:39.605Z,99048.16
2019-02-27T00:50:12.386Z,99044.22
2019-02-27T00:52:45.401Z,99050.34
2019-02-27T00:55:16.775Z,99050.34
2019-02-27T00:57:48.531Z,99052.77
2019-02-27T01:00:20.597Z,99056.14
2019-02-27T01:02:53.452Z,99064.19
2019-02-27T01:05:25.458Z,99064.19
2019-02-27T01:07:59.260Z,99064.84
2019-02-27T01:10:31.093Z,99074.70
2019-02-27T01:13:02.907Z,99072.80
2019-02-27T01:15:34.858Z,99081.19
2019-02-27T01:18:06.609Z,99087.63
2019-02-27T01:20:38.320Z,99087.63
2019-02-27T01:23:11.073Z,99101.20
2019-02-27T01:25:43.604Z,99106.98
2019-02-27T01:28:15.324Z,99106.98
2019-02-27T01:30:47.055Z,99110.80
2019-02-27T01:33:19.324Z,99118.81
2019-02-27T01:35:52.273Z,99126.55
2019-02-27T01:38:24.019Z,99133.88
2019-02-27T01:40:58.723Z,99133.88
2019-02-27T01:43:30.463Z,99144.62
2019-02-27T01:46:02.556Z,99144.62
2019-02-27T01:48:34.656Z,99157.05
2019-02-27T01:51:06.531Z,99154.98
2019-02-27T01:53:40.496Z,99160.39
2019-02-27T01:56:13.213Z,99160.39
2019-02-27T01:58:44.727Z,99167.56
2019-02-27T02:01:16.687Z,99170.54
2019-02-27T02:03:49.045Z,99177.94
2019-02-27T02:06:20.691Z,99185.05
2019-02-27T02:09:09.914Z,99185.05
2019-02-27T02:11:43.656Z,99189.28
2019-02-27T02:14:48.514Z,99191.00
2019-02-27T02:17:47.043Z,99191.00
2019-02-27T02:20:38.691Z,99192.00
2019-02-27T02:23:49.710Z,99194.39
2019-02-27T02:27:07.996Z,99200.47
2019-02-27T02:30:34.787Z,99200.47
2019-02-27T02:33:43.639Z,99218.03
2019-02-27T02:36:38.358Z,99218.03
2019-02-27T02:39:38.408Z,99230.48
2019-02-27T02:42:41.938Z,99242.03
2019-02-27T02:45:32.729Z,99238.93
2019-02-27T02:48:32.340Z,99247.08
2019-02-27T02:51:47.878Z,99256.75
2019-02-27T02:55:14.749Z,99256.75
2019-02-27T02:58:32.778Z,99269.02
2019-02-27T03:01:15.236Z,99269.02
2019-02-27T03:04:05.668Z,99283.05
2019-02-27T03:07:13.517Z,99298.05
2019-02-27T03:10:18.116Z,99298.05
2019-02-27T03:13:33.389Z,99305.91
2019-02-27T03:16:42.373Z,99316.11
2019-02-27T03:19:43.148Z,99321.13
2019-02-27T03:23:04.701Z,99321.13
2019-02-27T03:25:58.055Z,99329.83
2019-02-27T03:29:16.068Z,99332.98
2019-02-27T03:32:05.233Z,99332.98
2019-02-27T03:35:09.126Z,99336.92
2019-02-27T03:38:05.762Z,99336.92
2019-02-27T03:41:22.484Z,99343.89
2019-02-27T03:44:20.707Z,99343.89
2019-02-27T03:47:24.752Z,99339.47
2019-02-27T03:50:25.697Z,99339.47
2019-02-27T03:53:18.224Z,99337.95
2019-02-27T03:56:12.586Z,99337.95
2019-02-27T03:59:06.323Z,99339.02
2019-02-27T04:02:11.060Z,99344.29
2019-02-27T04:05:21.264Z,99354.44
2019-02-27T04:08:29.338Z,99354.44
2019-02-27T04:11:05.543Z,99354.48
2019-02-27T04:13:34.243Z,99367.16
2019-02-27T04:16:05.685Z,99370.97
2019-02-27T04:18:34.747Z,99381.98
2019-02-27T04:21:06.869Z,99381.09
2019-02-27T04:23:38.571Z,99382.25
2019-02-27T04:26:10.292Z,99381.40
2019-02-27T04:28:41.894Z,99391.22
2019-02-27T04:31:13.766Z,99391.54
2019-02-27T04:33:45.607Z,99388.70
2019-02-27T04:36:18.706Z,99388.70
2019-02-27T04:38:50.281Z,99396.98
2019-02-27T04:41:22.206Z,99396.98
2019-02-27T04:43:53.862Z,99390.14
2019-02-27T04:46:25.416Z,99386.71
2019-02-27T04:48:57.187Z,99392.69
2019-02-27T04:51:28.807Z,99392.69
2019-02-27T04:54:00.382Z,99398.50
2019-02-27T04:56:31.858Z,99398.50
2019-02-27T04:59:03.591Z,99395.87
2019-02-27T05:01:36.664Z,99393.92
2019-02-27T05:04:08.547Z,99400.53
2019-02-27T05:06:40.236Z,99400.53
2019-02-27T05:09:13.088Z,99400.20
2019-02-27T05:11:47.566Z,99404.90
2019-02-27T05:14:18.144Z,99405.45
2019-02-27T05:16:49.715Z,99394.83
2019-02-27T05:19:22.449Z,99395.22
2019-02-27T05:21:54.023Z,99383.08
2019-02-27T05:24:27.501Z,99392.62
2019-02-27T05:27:00.833Z,99384.20
2019-02-27T05:29:32.525Z,99386.96
2019-02-27T05:32:04.047Z,99388.98
2019-02-27T05:34:35.719Z,99394.38
2019-02-27T05:37:07.200Z,99387.22
2019-02-27T05:39:38.832Z,99388.66
2019-02-27T05:42:10.499Z,99387.12
2019-02-27T05:44:42.464Z,99383.73
2019-02-27T05:47:14.179Z,99383.44
2019-02-27T05:49:45.583Z,99388.58
2019-02-27T05:52:17.030Z,99385.88
2019-02-27T05:54:48.804Z,99383.41
2019-02-27T05:57:23.258Z,99384.52
2019-02-27T05:59:54.642Z,99377.98
2019-02-27T06:02:26.393Z,99376.22
2019-02-27T06:05:00.578Z,99376.22
2019-02-27T06:07:32.274Z,99368.05
2019-02-27T06:10:04.029Z,99368.05
2019-02-27T06:12:39.992Z,99359.22
2019-02-27T06:15:11.135Z,99355.51
2019-02-27T06:17:43.760Z,99357.22
2019-02-27T06:20:17.140Z,99351.53
2019-02-27T06:22:49.015Z,99344.01
2019-02-27T06:25:23.377Z,99351.05
2019-02-27T06:27:54.077Z,99340.98
2019-02-27T06:30:30.324Z,99328.52
2019-02-27T06:32:59.296Z,99312.91
2019-02-27T06:35:34.174Z,99316.13
2019-02-27T06:38:04.836Z,99314.44
2019-02-27T06:40:36.501Z,99311.61
2019-02-27T06:43:08.639Z,99315.39
2019-02-27T06:45:45.190Z,99306.59
2019-02-27T06:48:14.626Z,99306.59
2019-02-27T06:50:46.272Z,99303.70
2019-02-27T06:53:19.901Z,99302.86
2019-02-27T06:55:52.114Z,99297.84
2019-02-27T06:58:24.287Z,99296.50
2019-02-27T07:00:56.300Z,99290.58
2019-02-27T07:03:30.955Z,99287.91
2019-02-27T07:06:03.176Z,99287.91
2019-02-27T07:08:38.183Z,99298.14
2019-02-27T07:11:11.369Z,99289.59
2019-02-27T07:13:44.501Z,99289.59
2019-02-27T07:16:17.030Z,99286.52
2019-02-27T07:18:48.946Z,99275.95
2019-02-27T07:21:21.869Z,99277.89
2019-02-27T07:23:57.727Z,99277.89
2019-02-27T07:26:27.944Z,99257.98
2019-02-27T07:29:00.068Z,99255.19
2019-02-27T07:31:35.207Z,99253.22
2019-02-27T07:34:06.889Z,99253.22
2019-02-27T07:36:50.685Z,99237.70
2019-02-27T07:39:23.850Z,99237.70
2019-02-27T07:41:56.372Z,99226.66
2019-02-27T07:44:29.043Z,99230.59
2019-02-27T07:47:02.799Z,99229.39
2019-02-27T07:49:36.167Z,99225.59
2019-02-27T07:52:08.468Z,99226.06
2019-02-27T07:54:45.042Z,99221.97
2019-02-27T07:57:17.620Z,99221.97
2019-02-27T07:59:54.895Z,99210.20
2019-02-27T08:02:27.548Z,99210.63
2019-02-27T08:05:01.183Z,99207.27
2019-02-27T08:07:43.294Z,99200.36
2019-02-27T08:10:19.089Z,99200.36
2019-02-27T08:12:55.572Z,99182.70
2019-02-27T08:15:27.475Z,99177.44
2019-02-27T08:18:04.698Z,99172.59
2019-02-27T08:20:37.192Z,99172.59
2019-02-27T08:23:09.891Z,99174.70
2019-02-27T08:25:42.539Z,99164.16
2019-02-27T08:28:15.017Z,99155.91
2019-02-27T08:30:48.501Z,99160.75
2019-02-27T08:33:21.330Z,99157.22
2019-02-27T08:35:55.229Z,99148.20
2019-02-27T08:38:29.214Z,99148.20
2019-02-27T08:41:01.844Z,99127.03
2019-02-27T08:43:34.486Z,99127.03
2019-02-27T08:46:06.817Z,99133.30
2019-02-27T08:48:39.466Z,99128.23
2019-02-27T08:51:12.032Z,99119.10
2019-02-27T08:53:45.063Z,99112.98
2019-02-27T08:56:17.422Z,99117.45
2019-02-27T08:58:50.374Z,99117.45
2019-02-27T09:01:22.851Z,99102.34
2019-02-27T09:03:55.293Z,99102.34
2019-02-27T09:06:28.262Z,99094.56
2019-02-27T09:09:01.815Z,99081.49
2019-02-27T09:11:37.196Z,99069.42
2019-02-27T09:14:12.328Z,99074.70
2019-02-27T09:16:44.986Z,99074.70
2019-02-27T09:19:17.951Z,99082.01
2019-02-27T09:21:51.073Z,99072.58
2019-02-27T09:24:24.423Z,99073.13
2019-02-27T09:26:58.107Z,99077.14
2019-02-27T09:29:30.770Z,99072.47
2019-02-27T09:32:03.704Z,99072.47
2019-02-27T09:34:37.865Z,99076.22
2019-02-27T09:37:16.361Z,99076.22
2019-02-27T09:39:48.019Z,99075.67
2019-02-27T09:42:20.942Z,99075.67
2019-02-27T09:44:53.888Z,99078.27
2019-02-27T09:47:28.632Z,99070.06
2019-02-27T09:50:03.627Z,99061.76
2019-02-27T09:52:37.713Z,99056.13
2019-02-27T09:55:12.554Z,99055.19
2019-02-27T09:57:48.012Z,99047.11
2019-02-27T10:00:38.422Z,99041.37
2019-02-27T10:03:13.634Z,99042.16
2019-02-27T10:05:46.261Z,99042.16
2019-02-27T10:08:19.109Z,99037.55
2019-02-27T10:10:53.871Z,99046.08
2019-02-27T10:13:32.000Z,99052.65
2019-02-27T10:16:05.440Z,99052.65
2019-02-27T10:18:38.533Z,99059.82
2019-02-27T10:21:22.273Z,99080.23
2019-02-27T10:23:58.055Z,99080.23
2019-02-27T10:26:35.678Z,99083.16
2019-02-27T10:29:10.888Z,99080.88
2019-02-27T10:31:44.735Z,99080.13
2019-02-27T10:34:20.852Z,99080.13
2019-02-27T10:37:05.624Z,99081.63
2019-02-27T10:39:41.626Z,99090.42
2019-02-27T10:42:16.805Z,99092.77
2019-02-27T10:44:49.521Z,99092.77
2019-02-27T10:47:22.866Z,99094.92
2019-02-27T10:50:01.889Z,99095.09
2019-02-27T10:52:34.497Z,99103.89
2019-02-27T10:55:11.278Z,99106.51
2019-02-27T10:57:43.417Z,99106.51
2019-02-27T11:00:20.111Z,99129.37
2019-02-27T11:02:54.579Z,99125.98
2019-02-27T11:05:34.250Z,99136.77
2019-02-27T11:08:15.893Z,99142.09
2019-02-27T11:10:49.130Z,99140.77
2019-02-27T11:13:25.235Z,99140.77
2019-02-27T11:15:59.217Z,99140.19
2019-02-27T11:18:32.190Z,99135.33
2019-02-27T11:21:05.712Z,99140.41
2019-02-27T11:23:41.116Z,99140.41
2019-02-27T11:26:14.023Z,99139.27
2019-02-27T11:28:47.708Z,99157.43
2019-02-27T11:31:22.072Z,99207.36
2019-02-27T11:33:55.849Z,99207.36
2019-02-27T11:36:30.955Z,99203.70
2019-02-27T11:39:06.813Z,99186.95
2019-02-27T11:41:42.156Z,99177.58
2019-02-27T11:44:15.727Z,99200.39
2019-02-27T11:46:58.425Z,99208.59
2019-02-27T11:49:23.823Z,99208.59
2019-02-27T11:51:57.086Z,99252.33
2019-02-27T11:54:30.629Z,99293.45
2019-02-27T11:57:02.573Z,99339.11
2019-02-27T11:59:36.639Z,99387.34
2019-02-27T12:02:09.047Z,99387.34
2019-02-27T12:04:41.359Z,99397.14
2019-02-27T12:07:17.243Z,99395.75
2019-02-27T12:09:47.916Z,99398.62
2019-02-27T12:12:22.507Z,99370.42
2019-02-27T12:14:53.167Z,99364.59
2019-02-27T12:17:25.682Z,99347.12
2019-02-27T12:19:57.250Z,99323.12
2019-02-27T12:22:32.955Z,99323.12
2019-02-27T12:25:04.354Z,99284.98
2019-02-27T12:27:48.273Z,99250.14
2019-02-27T12:30:12.582Z,99221.39
2019-02-27T12:32:44.108Z,99183.31
2019-02-27T12:35:21.351Z,99183.31
2019-02-27T12:37:53.123Z,99192.20
2019-02-27T12:40:26.118Z,99224.25
2019-02-27T12:42:57.980Z,99243.66
2019-02-27T12:45:29.885Z,99243.66
2019-02-27T12:48:01.625Z,99278.89
2019-02-27T12:50:33.926Z,99302.58
2019-02-27T12:53:08.915Z,99302.58
2019-02-27T12:55:43.006Z,99336.02
2019-02-27T12:58:17.067Z,99352.58
2019-02-27T13:00:48.602Z,99366.50
2019-02-27T13:03:21.117Z,99341.60
2019-02-27T13:05:52.519Z,99331.81
2019-02-27T13:08:24.064Z,99333.23
2019-02-27T13:10:55.536Z,99341.05
2019-02-27T13:13:26.933Z,99341.05
2019-02-27T13:15:58.112Z,99346.53
2019-02-27T13:18:32.068Z,99337.72
2019-02-27T13:21:02.830Z,99319.55
2019-02-27T13:23:36.405Z,99311.12
2019-02-27T13:26:07.908Z,99311.12
2019-02-27T13:28:39.722Z,99309.73
2019-02-27T13:31:13.683Z,99309.73
2019-02-27T13:33:46.411Z,99314.26
2019-02-27T13:36:18.324Z,99322.01
2019-02-27T13:38:52.176Z,99322.01
2019-02-27T13:41:23.834Z,99336.08
2019-02-27T13:43:58.181Z,99331.29
2019-02-27T13:46:29.203Z,99331.29
2019-02-27T13:49:01.473Z,99325.83
2019-02-27T13:51:33.891Z,99330.18
2019-02-27T13:54:06.561Z,99334.86
2019-02-27T13:56:38.625Z,99333.03
2019-02-27T13:59:11.045Z,99333.03
2019-02-27T14:01:44.797Z,99337.04
2019-02-27T14:04:19.592Z,99337.04
2019-02-27T14:06:50.364Z,99348.90
2019-02-27T14:09:21.958Z,99348.90
2019-02-27T14:11:58.416Z,99339.37
2019-02-27T14:14:27.461Z,99338.25
2019-02-27T14:16:59.107Z,99337.59
2019-02-27T14:19:30.643Z,99342.35
2019-02-27T14:22:02.159Z,99342.35
2019-02-27T14:24:34.835Z,99343.74
2019-02-27T14:27:12.068Z,99343.74
2019-02-27T14:29:45.918Z,99347.89
2019-02-27T14:32:17.363Z,99350.75
2019-02-27T14:34:48.966Z,99349.83
2019-02-27T14:37:20.425Z,99354.95
2019-02-27T14:39:51.991Z,99363.14
2019-02-27T14:42:24.745Z,99364.34
2019-02-27T14:44:56.163Z,99364.34
2019-02-27T14:47:27.516Z,99371.44
2019-02-27T14:50:00.141Z,99379.84
2019-02-27T14:52:33.182Z,99384.92
2019-02-27T14:55:04.998Z,99386.45
2019-02-27T14:57:36.603Z,99386.45
2019-02-27T15:00:11.210Z,99387.14
2019-02-27T15:02:44.610Z,99393.80
2019-02-27T15:05:16.291Z,99393.80
2019-02-27T15:07:47.937Z,99400.30
2019-02-27T15:10:19.746Z,99400.84
2019-02-27T15:12:54.972Z,99400.84
2019-02-27T15:15:26.382Z,99416.71
2019-02-27T15:17:58.077Z,99424.39
2019-02-27T15:20:29.923Z,99424.39
2019-02-27T15:23:01.740Z,99427.34
2019-02-27T15:25:33.445Z,99435.80
2019-02-27T15:28:05.006Z,99443.63
2019-02-27T15:30:37.115Z,99443.63
2019-02-27T15:33:08.790Z,99459.39
2019-02-27T15:35:40.436Z,99470.10
2019-02-27T15:38:12.443Z,99468.16
2019-02-27T15:40:44.307Z,99468.16
2019-02-27T15:43:17.470Z,99470.36
2019-02-27T15:45:49.196Z,99481.83
2019-02-27T15:48:20.832Z,99481.83
2019-02-27T15:50:56.337Z,99496.95
2019-02-27T15:53:26.202Z,99502.16
2019-02-27T15:55:59.634Z,99500.48
2019-02-27T15:58:32.923Z,99504.95
2019-02-27T16:01:04.361Z,99515.05
2019-02-27T16:03:36.198Z,99515.98
2019-02-27T16:06:07.951Z,99515.98
2019-02-27T16:08:39.540Z,99505.80
2019-02-27T16:11:11.056Z,99507.55
2019-02-27T16:13:42.913Z,99513.76
2019-02-27T16:16:14.515Z,99513.76
2019-02-27T16:18:45.982Z,99537.29
2019-02-27T16:21:17.778Z,99533.75
2019-02-27T16:23:50.651Z,99535.21
2019-02-27T16:26:27.027Z,99521.06
2019-02-27T16:28:56.203Z,99521.06
2019-02-27T16:31:27.898Z,99538.31
2019-02-27T16:33:59.557Z,99548.80
2019-02-27T16:36:36.276Z,99548.80
2019-02-27T16:39:07.426Z,99539.56
2019-02-27T16:41:41.193Z,99539.56
2019-02-27T16:44:12.699Z,99540.89
2019-02-27T16:46:44.938Z,99553.47
2019-02-27T16:49:16.782Z,99555.37
2019-02-27T16:51:48.373Z,99556.38
2019-02-27T16:54:19.715Z,99556.38
2019-02-27T16:56:51.463Z,99556.92
2019-02-27T16:59:23.640Z,99545.00
2019-02-27T17:01:56.799Z,99545.00
2019-02-27T17:04:28.178Z,99547.92
2019-02-27T17:06:59.722Z,99558.97
2019-02-27T17:09:31.610Z,99558.97
2019-02-27T17:12:04.269Z,99551.43
2019-02-27T17:14:39.272Z,99562.88
2019-02-27T17:17:11.698Z,99558.31
2019-02-27T17:19:43.351Z,99547.07
2019-02-27T17:22:15.383Z,99547.07
2019-02-27T17:24:47.193Z,99546.45
2019-02-27T17:27:19.005Z,99547.83
2019-02-27T17:29:50.540Z,99547.83
2019-02-27T17:32:22.364Z,99555.12
2019-02-27T17:34:54.059Z,99548.12
2019-02-27T17:37:25.849Z,99548.12
2019-02-27T17:39:59.295Z,99558.16
2019-02-27T17:42:31.986Z,99558.16
2019-02-27T17:45:03.714Z,99553.16
2019-02-27T17:47:35.978Z,99553.16
2019-02-27T17:50:07.897Z,99567.98
2019-02-27T17:52:39.644Z,99567.98
2019-02-27T17:55:11.600Z,99571.36
2019-02-27T17:57:43.018Z,99571.69
2019-02-27T18:00:21.605Z,99571.69
2019-02-27T18:02:54.156Z,99570.72
2019-02-27T18:05:27.416Z,99574.11
2019-02-27T18:07:58.788Z,99565.89
2019-02-27T18:10:30.237Z,99565.89
2019-02-27T18:13:02.099Z,99580.98
2019-02-27T18:15:33.475Z,99570.37
2019-02-27T18:18:07.501Z,99575.06
2019-02-27T18:24:38.146Z,99579.52
2019-02-27T18:27:10.001Z,99579.52
2019-02-27T18:29:43.730Z,99584.99
2019-02-27T18:32:14.912Z,99568.20
2019-02-27T18:34:47.357Z,99560.91
2019-02-27T18:37:21.696Z,99567.53
2019-02-27T18:39:53.456Z,99567.53
2019-02-27T18:42:25.001Z,99561.22
2019-02-27T18:44:57.658Z,99556.83
2019-02-27T18:47:28.944Z,99553.23
2019-02-27T18:50:00.372Z,99553.74
2019-02-27T18:52:32.302Z,99553.74
2019-02-27T18:55:04.065Z,99546.66
2019-02-27T18:57:35.598Z,99550.69
2019-02-27T19:00:09.336Z,99547.58
2019-02-27T19:02:41.438Z,99544.00
2019-02-27T19:05:13.418Z,99543.78
2019-02-27T19:07:45.320Z,99543.78
2019-02-27T19:10:18.557Z,99551.66
2019-02-27T19:12:50.248Z,99554.50
2019-02-27T19:15:22.352Z,99554.50
2019-02-27T19:17:54.390Z,99542.09
2019-02-27T19:20:28.438Z,99537.52
2019-02-27T19:23:00.473Z,99537.52
2019-02-27T19:25:34.767Z,99554.09
2019-02-27T19:28:05.930Z,99554.09
2019-02-27T19:30:38.688Z,99552.68
2019-02-27T19:33:11.344Z,99549.08
2019-02-27T19:35:42.999Z,99549.15
2019-02-27T19:38:14.768Z,99553.69
2019-02-27T19:40:46.293Z,99556.52
2019-02-27T19:43:18.142Z,99556.52
2019-02-27T19:45:51.277Z,99539.59
2019-02-27T19:48:23.017Z,99535.13
2019-02-27T19:50:54.747Z,99535.13
2019-02-27T19:53:26.475Z,99540.25
2019-02-27T19:56:00.730Z,99540.25
2019-02-27T19:58:31.625Z,99542.27
2019-02-27T20:01:08.733Z,99551.83
2019-02-27T20:03:37.560Z,99536.45
2019-02-27T20:06:09.397Z,99531.52
2019-02-27T20:08:44.750Z,99543.31
2019-02-27T20:11:14.648Z,99538.61
2019-02-27T20:13:46.944Z,99538.61
2019-02-27T20:16:20.701Z,99538.58
2019-02-27T20:18:54.852Z,99535.13
2019-02-27T20:21:25.048Z,99535.46
2019-02-27T20:24:01.478Z,99530.48
2019-02-27T20:26:33.939Z,99525.65
2019-02-27T20:29:06.445Z,99525.65
2019-02-27T20:31:37.899Z,99534.83
2019-02-27T20:34:11.589Z,99534.83
2019-02-27T20:36:42.956Z,99523.77
2019-02-27T20:39:14.740Z,99523.30
2019-02-27T20:41:46.489Z,99524.02
2019-02-27T20:44:19.046Z,99524.02
2019-02-27T20:46:50.929Z,99523.36
2019-02-27T20:49:22.469Z,99523.36
2019-02-27T20:51:54.167Z,99523.39
2019-02-27T20:54:25.811Z,99514.93
2019-02-27T20:56:57.511Z,99514.93
2019-02-27T20:59:29.119Z,99522.23
2019-02-27T21:02:00.684Z,99510.83
2019-02-27T21:04:35.255Z,99506.00
2019-02-27T21:07:06.018Z,99519.30
2019-02-27T21:09:37.899Z,99512.20
2019-02-27T21:12:09.551Z,99517.45
2019-02-27T21:14:41.370Z,99517.45
2019-02-27T21:17:12.917Z,99511.38
2019-02-27T21:19:44.600Z,99500.60
2019-02-27T21:22:16.943Z,99515.83
2019-02-27T21:24:48.460Z,99511.63
2019-02-27T21:27:21.139Z,99515.35
2019-02-27T21:29:53.616Z,99508.24
2019-02-27T21:32:25.497Z,99508.24
2019-02-27T21:34:57.320Z,99509.77
2019-02-27T21:37:29.133Z,99517.38
2019-02-27T21:40:03.059Z,99517.38
2019-02-27T21:42:34.272Z,99509.61
2019-02-27T21:45:06.507Z,99517.12
2019-02-27T21:47:38.856Z,99527.06
2019-02-27T21:50:11.564Z,99527.06
2019-02-27T21:52:43.195Z,99519.27
2019-02-27T21:55:14.996Z,99519.27
2019-02-27T21:57:46.968Z,99495.11
2019-02-27T22:00:22.516Z,99491.23
2019-02-27T22:02:55.267Z,99496.12
2019-02-27T22:05:26.932Z,99499.55
2019-02-27T22:07:58.652Z,99499.55
2019-02-27T22:10:32.292Z,99493.09
2019-02-27T22:13:09.302Z,99490.81
2019-02-27T22:15:37.398Z,99494.58
2019-02-27T22:18:11.779Z,99494.58
2019-02-27T22:20:42.332Z,99507.16
2019-02-27T22:23:14.987Z,99507.16
2019-02-27T22:25:46.816Z,99502.42
2019-02-27T22:28:19.952Z,99502.42
2019-02-27T22:30:51.099Z,99515.75
2019-02-27T22:33:23.174Z,99518.11
2019-02-27T22:35:54.866Z,99518.38
2019-02-27T22:38:26.843Z,99518.38
2019-02-27T22:40:58.691Z,99516.48
2019-02-27T22:43:30.278Z,99515.22
2019-02-27T22:46:01.896Z,99515.22
2019-02-27T22:48:33.304Z,99516.81
2019-02-27T22:51:04.850Z,99515.95
2019-02-27T22:53:36.446Z,99521.81
2019-02-27T22:56:08.119Z,99514.28
2019-02-27T22:58:39.497Z,99523.63
2019-02-27T23:01:22.077Z,99528.48
2019-02-27T23:04:02.746Z,99528.48
2019-02-27T23:06:34.472Z,99527.02
2019-02-27T23:09:09.133Z,99529.72
2019-02-27T23:11:41.556Z,99528.78
2019-02-27T23:14:13.348Z,99528.78
2019-02-27T23:16:46.762Z,99522.38
2019-02-27T23:19:18.053Z,99518.43
2019-02-27T23:21:49.785Z,99518.43
2019-02-27T23:24:21.686Z,99512.83
2019-02-27T23:26:54.775Z,99518.47
2019-02-27T23:29:26.654Z,99518.47
2019-02-27T23:31:58.341Z,99515.39
2019-02-27T23:34:29.959Z,99510.92
2019-02-27T23:37:01.551Z,99513.80
2019-02-27T23:39:33.342Z,99520.09
2019-02-27T23:42:05.292Z,99522.55
2019-02-27T23:44:38.782Z,99522.55
2019-02-27T23:47:10.528Z,99529.31
2019-02-27T23:49:42.436Z,99536.03
2019-02-27T23:52:14.776Z,99536.03
2019-02-27T23:54:46.363Z,99540.13
2019-02-27T23:57:18.077Z,99546.32
2019-02-27T23:59:49.626Z,99563.24
